Terminal Aerodrome Forecast
Issued by NWS

Home | Current Version | Previous Version | Text Only | Print | Product List | Glossary On
Versions: 1 2 3 4 5 6 7 8 9 10 11 12 13 14 15 16 17 18
000
FTUS45 KTFX 111142
TAFLWT
TAF
KLWT 111142Z 1112/1212 VRB05KT P6SM SCT120
     FM111400 22005KT P6SM BKN060 PROB30 1203/1206 2SM -SN BKN015
     FM120600 30006KT P6SM BKN008 PROB30 1206/1208 -SN OVC007
     FM120800 33007KT 1 1/2SM -SN BKN008=

USA.gov is the U.S. government's official web portal to all federal, state and local government web resources and services.